Willington, Connecticut
Current Conditions -  °F | °C
As of 7:52 PM on Friday 28 Nov 2014 (Local Time) from KIJD Reporting Station
Clear Clear  
Wind Chill: 21°   Ceiling: Unl
Heat Index: 28°   Visibility: 10mi
Dew Point: 15°   Wind: 7mph
Humidity: 58%   Direction: 310°NW
Pressure: 30.2"   Gusts: NA
Location:  41.88°N, 72.27°W
Report Text: KIJD 290052Z AUTO 31006KT 10SM CLR M02/M09 A3020 RMK AO2 SLP231 T10221094
Loading
Personal Weather Stations






























Interactive Weather Map New forecast layout! Learn more

10-Day Weather Forecast

Advertisements
Track Severe Weather on mobile